sensor_id;sensor_type;location;lat;lon;timestamp;P1;durP1;ratioP1;P2;durP2;ratioP2
4057;SDS011;2044;48.692;9.020;2023-07-02T00:00:05;6.10;;;4.53;;
4057;SDS011;2044;48.692;9.020;2023-07-02T00:02:33;8.37;;;4.10;;
4057;SDS011;2044;48.692;9.020;2023-07-02T00:05:00;5.20;;;4.40;;
4057;SDS011;2044;48.692;9.020;2023-07-02T00:07:27;5.50;;;4.63;;
4057;SDS011;2044;48.692;9.020;2023-07-02T00:09:54;6.50;;;4.47;;
4057;SDS011;2044;48.692;9.020;2023-07-02T00:12:21;5.63;;;3.90;;
4057;SDS011;2044;48.692;9.020;2023-07-02T00:14:48;7.13;;;4.53;;
4057;SDS011;2044;48.692;9.020;2023-07-02T00:17:19;7.60;;;4.30;;
4057;SDS011;2044;48.692;9.020;2023-07-02T00:19:46;4.40;;;3.90;;
4057;SDS011;2044;48.692;9.020;2023-07-02T00:22:16;4.90;;;4.00;;
4057;SDS011;2044;48.692;9.020;2023-07-02T00:24:43;7.90;;;5.00;;
4057;SDS011;2044;48.692;9.020;2023-07-02T00:27:10;6.73;;;4.53;;
4057;SDS011;2044;48.692;9.020;2023-07-02T00:29:37;6.00;;;4.63;;
4057;SDS011;2044;48.692;9.020;2023-07-02T00:32:04;6.87;;;3.90;;
4057;SDS011;2044;48.692;9.020;2023-07-02T00:34:33;6.37;;;4.47;;
4057;SDS011;2044;48.692;9.020;2023-07-02T00:37:00;4.90;;;4.40;;
4057;SDS011;2044;48.692;9.020;2023-07-02T00:39:27;6.37;;;4.77;;
4057;SDS011;2044;48.692;9.020;2023-07-02T00:41:59;4.97;;;4.20;;
4057;SDS011;2044;48.692;9.020;2023-07-02T00:44:26;6.10;;;4.30;;
4057;SDS011;2044;48.692;9.020;2023-07-02T00:46:53;6.37;;;4.73;;
4057;SDS011;2044;48.692;9.020;2023-07-02T00:49:19;5.33;;;4.30;;
4057;SDS011;2044;48.692;9.020;2023-07-02T00:51:48;7.73;;;3.80;;
4057;SDS011;2044;48.692;9.020;2023-07-02T00:54:15;6.60;;;4.20;;
4057;SDS011;2044;48.692;9.020;2023-07-02T00:56:42;5.93;;;3.80;;
4057;SDS011;2044;48.692;9.020;2023-07-02T00:59:10;5.90;;;3.80;;
4057;SDS011;2044;48.692;9.020;2023-07-02T01:01:38;4.83;;;3.80;;
4057;SDS011;2044;48.692;9.020;2023-07-02T01:04:05;4.43;;;3.43;;
4057;SDS011;2044;48.692;9.020;2023-07-02T01:06:35;5.40;;;3.77;;
4057;SDS011;2044;48.692;9.020;2023-07-02T01:09:06;4.10;;;3.57;;
4057;SDS011;2044;48.692;9.020;2023-07-02T01:11:35;3.77;;;3.40;;
4057;SDS011;2044;48.692;9.020;2023-07-02T01:14:05;4.90;;;3.40;;
4057;SDS011;2044;48.692;9.020;2023-07-02T01:16:36;4.53;;;3.57;;
4057;SDS011;2044;48.692;9.020;2023-07-02T01:19:10;3.00;;;2.80;;
4057;SDS011;2044;48.692;9.020;2023-07-02T01:21:39;5.07;;;3.80;;
4057;SDS011;2044;48.692;9.020;2023-07-02T01:24:06;4.20;;;3.70;;
4057;SDS011;2044;48.692;9.020;2023-07-02T01:26:33;4.87;;;3.33;;
4057;SDS011;2044;48.692;9.020;2023-07-02T01:29:11;5.33;;;3.50;;
4057;SDS011;2044;48.692;9.020;2023-07-02T01:31:39;4.13;;;2.90;;
4057;SDS011;2044;48.692;9.020;2023-07-02T01:34:06;4.00;;;3.40;;
4057;SDS011;2044;48.692;9.020;2023-07-02T01:36:34;4.43;;;3.30;;
4057;SDS011;2044;48.692;9.020;2023-07-02T01:39:02;5.77;;;3.57;;
4057;SDS011;2044;48.692;9.020;2023-07-02T01:41:29;3.77;;;3.47;;
4057;SDS011;2044;48.692;9.020;2023-07-02T01:43:56;7.43;;;3.53;;
4057;SDS011;2044;48.692;9.020;2023-07-02T01:46:23;4.50;;;3.03;;
4057;SDS011;2044;48.692;9.020;2023-07-02T01:48:49;5.03;;;3.33;;
4057;SDS011;2044;48.692;9.020;2023-07-02T01:51:16;5.70;;;3.43;;
4057;SDS011;2044;48.692;9.020;2023-07-02T01:53:43;4.67;;;3.47;;
4057;SDS011;2044;48.692;9.020;2023-07-02T01:56:12;3.90;;;3.13;;
4057;SDS011;2044;48.692;9.020;2023-07-02T01:58:38;5.97;;;3.47;;
4057;SDS011;2044;48.692;9.020;2023-07-02T02:01:05;4.63;;;3.30;;
4057;SDS011;2044;48.692;9.020;2023-07-02T02:03:32;7.67;;;3.60;;
4057;SDS011;2044;48.692;9.020;2023-07-02T02:05:58;3.70;;;3.40;;
4057;SDS011;2044;48.692;9.020;2023-07-02T02:08:25;3.73;;;3.10;;
4057;SDS011;2044;48.692;9.020;2023-07-02T02:10:52;4.33;;;3.10;;
4057;SDS011;2044;48.692;9.020;2023-07-02T02:13:20;5.50;;;3.50;;
4057;SDS011;2044;48.692;9.020;2023-07-02T02:15:47;3.43;;;2.93;;
4057;SDS011;2044;48.692;9.020;2023-07-02T02:18:13;4.80;;;3.40;;
4057;SDS011;2044;48.692;9.020;2023-07-02T02:20:40;6.40;;;3.00;;
4057;SDS011;2044;48.692;9.020;2023-07-02T02:23:07;4.87;;;4.37;;
4057;SDS011;2044;48.692;9.020;2023-07-02T02:25:34;5.43;;;3.60;;
4057;SDS011;2044;48.692;9.020;2023-07-02T02:28:00;4.10;;;3.40;;
4057;SDS011;2044;48.692;9.020;2023-07-02T02:30:28;3.60;;;3.30;;
4057;SDS011;2044;48.692;9.020;2023-07-02T02:32:55;3.40;;;2.77;;
4057;SDS011;2044;48.692;9.020;2023-07-02T02:35:22;3.87;;;3.47;;
4057;SDS011;2044;48.692;9.020;2023-07-02T02:37:48;3.50;;;3.10;;
4057;SDS011;2044;48.692;9.020;2023-07-02T02:40:15;3.13;;;2.43;;
4057;SDS011;2044;48.692;9.020;2023-07-02T02:42:42;3.20;;;2.70;;
4057;SDS011;2044;48.692;9.020;2023-07-02T02:45:09;4.47;;;2.80;;
4057;SDS011;2044;48.692;9.020;2023-07-02T02:47:37;3.77;;;2.80;;
4057;SDS011;2044;48.692;9.020;2023-07-02T02:50:05;3.10;;;2.80;;
4057;SDS011;2044;48.692;9.020;2023-07-02T02:52:32;3.77;;;2.97;;
4057;SDS011;2044;48.692;9.020;2023-07-02T02:54:59;5.37;;;3.10;;
4057;SDS011;2044;48.692;9.020;2023-07-02T02:57:26;3.33;;;2.80;;
4057;SDS011;2044;48.692;9.020;2023-07-02T02:59:53;5.20;;;2.73;;
4057;SDS011;2044;48.692;9.020;2023-07-02T03:02:19;5.13;;;2.53;;
4057;SDS011;2044;48.692;9.020;2023-07-02T03:04:47;3.53;;;3.10;;
4057;SDS011;2044;48.692;9.020;2023-07-02T03:07:14;5.47;;;3.40;;
4057;SDS011;2044;48.692;9.020;2023-07-02T03:09:41;4.20;;;2.50;;
4057;SDS011;2044;48.692;9.020;2023-07-02T03:12:11;4.37;;;2.53;;
4057;SDS011;2044;48.692;9.020;2023-07-02T03:14:41;3.90;;;3.00;;
4057;SDS011;2044;48.692;9.020;2023-07-02T03:20:06;5.57;;;3.77;;
4057;SDS011;2044;48.692;9.020;2023-07-02T03:22:38;4.83;;;3.63;;
4057;SDS011;2044;48.692;9.020;2023-07-02T03:25:06;8.37;;;3.40;;
4057;SDS011;2044;48.692;9.020;2023-07-02T03:27:36;6.87;;;3.60;;
4057;SDS011;2044;48.692;9.020;2023-07-02T03:33:05;4.87;;;3.20;;
4057;SDS011;2044;48.692;9.020;2023-07-02T03:35:34;4.93;;;3.60;;
4057;SDS011;2044;48.692;9.020;2023-07-02T03:38:01;5.40;;;3.90;;
4057;SDS011;2044;48.692;9.020;2023-07-02T03:40:28;6.77;;;4.20;;
4057;SDS011;2044;48.692;9.020;2023-07-02T03:42:55;4.90;;;4.17;;
4057;SDS011;2044;48.692;9.020;2023-07-02T03:45:22;6.80;;;4.23;;
4057;SDS011;2044;48.692;9.020;2023-07-02T03:47:49;6.27;;;4.47;;
4057;SDS011;2044;48.692;9.020;2023-07-02T03:50:17;7.63;;;3.83;;
4057;SDS011;2044;48.692;9.020;2023-07-02T03:52:45;6.80;;;3.93;;
4057;SDS011;2044;48.692;9.020;2023-07-02T03:55:12;6.63;;;4.47;;
4057;SDS011;2044;48.692;9.020;2023-07-02T03:57:39;5.90;;;4.20;;
4057;SDS011;2044;48.692;9.020;2023-07-02T04:00:07;5.43;;;3.90;;
4057;SDS011;2044;48.692;9.020;2023-07-02T04:02:36;7.60;;;4.00;;
4057;SDS011;2044;48.692;9.020;2023-07-02T04:05:03;8.93;;;4.97;;
4057;SDS011;2044;48.692;9.020;2023-07-02T04:07:30;8.07;;;4.53;;
4057;SDS011;2044;48.692;9.020;2023-07-02T04:09:58;6.90;;;4.77;;
4057;SDS011;2044;48.692;9.020;2023-07-02T04:12:26;5.70;;;4.20;;
4057;SDS011;2044;48.692;9.020;2023-07-02T04:14:53;5.70;;;4.50;;
4057;SDS011;2044;48.692;9.020;2023-07-02T04:17:20;4.83;;;4.33;;
4057;SDS011;2044;48.692;9.020;2023-07-02T04:19:47;6.73;;;4.40;;
4057;SDS011;2044;48.692;9.020;2023-07-02T04:22:14;8.00;;;4.57;;
4057;SDS011;2044;48.692;9.020;2023-07-02T04:24:43;6.67;;;4.90;;
4057;SDS011;2044;48.692;9.020;2023-07-02T04:27:15;8.77;;;4.40;;
4057;SDS011;2044;48.692;9.020;2023-07-02T04:29:43;6.47;;;5.03;;
4057;SDS011;2044;48.692;9.020;2023-07-02T04:32:10;9.83;;;5.13;;
4057;SDS011;2044;48.692;9.020;2023-07-02T04:34:37;7.80;;;4.90;;
4057;SDS011;2044;48.692;9.020;2023-07-02T04:37:04;6.73;;;4.70;;
4057;SDS011;2044;48.692;9.020;2023-07-02T04:39:32;9.40;;;5.20;;
4057;SDS011;2044;48.692;9.020;2023-07-02T04:41:59;10.03;;;5.47;;
4057;SDS011;2044;48.692;9.020;2023-07-02T04:44:28;5.70;;;4.60;;
4057;SDS011;2044;48.692;9.020;2023-07-02T04:46:56;8.83;;;5.03;;
4057;SDS011;2044;48.692;9.020;2023-07-02T04:49:23;7.60;;;5.47;;
4057;SDS011;2044;48.692;9.020;2023-07-02T04:51:50;7.37;;;4.90;;
4057;SDS011;2044;48.692;9.020;2023-07-02T04:54:18;9.90;;;5.50;;
4057;SDS011;2044;48.692;9.020;2023-07-02T04:56:45;4.90;;;4.40;;
4057;SDS011;2044;48.692;9.020;2023-07-02T04:59:13;5.53;;;4.00;;
4057;SDS011;2044;48.692;9.020;2023-07-02T05:01:42;4.37;;;3.83;;
4057;SDS011;2044;48.692;9.020;2023-07-02T05:04:09;5.27;;;3.53;;
4057;SDS011;2044;48.692;9.020;2023-07-02T05:06:37;5.70;;;3.50;;
4057;SDS011;2044;48.692;9.020;2023-07-02T05:09:04;5.83;;;3.60;;
4057;SDS011;2044;48.692;9.020;2023-07-02T05:11:31;5.37;;;3.47;;
4057;SDS011;2044;48.692;9.020;2023-07-02T05:13:58;8.20;;;3.53;;
4057;SDS011;2044;48.692;9.020;2023-07-02T05:16:25;7.03;;;3.63;;
4057;SDS011;2044;48.692;9.020;2023-07-02T05:18:53;5.97;;;3.47;;
4057;SDS011;2044;48.692;9.020;2023-07-02T05:21:20;6.60;;;3.93;;
4057;SDS011;2044;48.692;9.020;2023-07-02T05:23:48;7.17;;;3.80;;
4057;SDS011;2044;48.692;9.020;2023-07-02T05:26:15;6.13;;;3.87;;
4057;SDS011;2044;48.692;9.020;2023-07-02T05:28:42;6.83;;;3.77;;
4057;SDS011;2044;48.692;9.020;2023-07-02T05:31:09;7.33;;;4.20;;
4057;SDS011;2044;48.692;9.020;2023-07-02T05:33:36;5.60;;;3.67;;
4057;SDS011;2044;48.692;9.020;2023-07-02T05:36:06;4.90;;;3.83;;
4057;SDS011;2044;48.692;9.020;2023-07-02T05:38:33;5.60;;;3.90;;
4057;SDS011;2044;48.692;9.020;2023-07-02T05:41:01;5.17;;;3.60;;
4057;SDS011;2044;48.692;9.020;2023-07-02T05:43:28;6.73;;;3.40;;
4057;SDS011;2044;48.692;9.020;2023-07-02T05:45:57;9.43;;;4.67;;
4057;SDS011;2044;48.692;9.020;2023-07-02T05:48:26;4.30;;;3.77;;
4057;SDS011;2044;48.692;9.020;2023-07-02T05:50:53;7.97;;;4.47;;
4057;SDS011;2044;48.692;9.020;2023-07-02T05:53:21;6.37;;;4.67;;
4057;SDS011;2044;48.692;9.020;2023-07-02T05:55:48;8.10;;;4.93;;
4057;SDS011;2044;48.692;9.020;2023-07-02T05:58:15;7.23;;;5.00;;
4057;SDS011;2044;48.692;9.020;2023-07-02T06:00:42;7.67;;;4.90;;
4057;SDS011;2044;48.692;9.020;2023-07-02T06:03:14;7.50;;;5.17;;
4057;SDS011;2044;48.692;9.020;2023-07-02T06:05:44;11.10;;;5.43;;
4057;SDS011;2044;48.692;9.020;2023-07-02T06:08:12;10.03;;;5.47;;
4057;SDS011;2044;48.692;9.020;2023-07-02T06:10:40;8.23;;;5.83;;
4057;SDS011;2044;48.692;9.020;2023-07-02T06:13:07;11.07;;;6.80;;
4057;SDS011;2044;48.692;9.020;2023-07-02T06:15:34;9.13;;;6.70;;
4057;SDS011;2044;48.692;9.020;2023-07-02T06:18:01;9.80;;;7.03;;
4057;SDS011;2044;48.692;9.020;2023-07-02T06:20:28;12.30;;;6.63;;
4057;SDS011;2044;48.692;9.020;2023-07-02T06:22:55;7.60;;;6.90;;
4057;SDS011;2044;48.692;9.020;2023-07-02T06:25:22;10.50;;;7.47;;
4057;SDS011;2044;48.692;9.020;2023-07-02T06:27:51;11.17;;;7.43;;
4057;SDS011;2044;48.692;9.020;2023-07-02T06:30:20;8.60;;;7.37;;
4057;SDS011;2044;48.692;9.020;2023-07-02T06:32:47;10.23;;;7.40;;
4057;SDS011;2044;48.692;9.020;2023-07-02T06:35:14;13.27;;;7.57;;
4057;SDS011;2044;48.692;9.020;2023-07-02T06:37:41;15.37;;;8.40;;
4057;SDS011;2044;48.692;9.020;2023-07-02T06:40:08;11.37;;;8.40;;
4057;SDS011;2044;48.692;9.020;2023-07-02T06:42:35;12.23;;;8.63;;
4057;SDS011;2044;48.692;9.020;2023-07-02T06:45:04;11.90;;;8.40;;
4057;SDS011;2044;48.692;9.020;2023-07-02T06:47:31;15.40;;;9.30;;
4057;SDS011;2044;48.692;9.020;2023-07-02T06:49:58;13.40;;;8.20;;
4057;SDS011;2044;48.692;9.020;2023-07-02T06:52:25;10.83;;;8.70;;
4057;SDS011;2044;48.692;9.020;2023-07-02T06:54:51;14.30;;;9.80;;
4057;SDS011;2044;48.692;9.020;2023-07-02T06:57:19;14.30;;;9.40;;
4057;SDS011;2044;48.692;9.020;2023-07-02T06:59:46;13.90;;;9.40;;
4057;SDS011;2044;48.692;9.020;2023-07-02T07:02:15;14.67;;;10.10;;
4057;SDS011;2044;48.692;9.020;2023-07-02T07:04:41;12.03;;;10.10;;
4057;SDS011;2044;48.692;9.020;2023-07-02T07:07:08;13.80;;;11.90;;
4057;SDS011;2044;48.692;9.020;2023-07-02T07:09:35;15.00;;;11.80;;
4057;SDS011;2044;48.692;9.020;2023-07-02T07:12:02;15.10;;;12.50;;
4057;SDS011;2044;48.692;9.020;2023-07-02T07:14:30;18.97;;;12.70;;
4057;SDS011;2044;48.692;9.020;2023-07-02T07:16:57;14.93;;;12.33;;
4057;SDS011;2044;48.692;9.020;2023-07-02T07:19:25;14.00;;;12.50;;
4057;SDS011;2044;48.692;9.020;2023-07-02T07:21:52;21.23;;;13.20;;
4057;SDS011;2044;48.692;9.020;2023-07-02T07:24:19;14.97;;;13.47;;
4057;SDS011;2044;48.692;9.020;2023-07-02T07:26:46;16.23;;;14.40;;
4057;SDS011;2044;48.692;9.020;2023-07-02T07:29:13;15.53;;;14.00;;
4057;SDS011;2044;48.692;9.020;2023-07-02T07:31:40;16.57;;;14.53;;
4057;SDS011;2044;48.692;9.020;2023-07-02T07:34:08;16.03;;;13.90;;
4057;SDS011;2044;48.692;9.020;2023-07-02T07:36:37;18.43;;;14.40;;
4057;SDS011;2044;48.692;9.020;2023-07-02T07:39:04;17.90;;;14.23;;
4057;SDS011;2044;48.692;9.020;2023-07-02T07:41:31;18.63;;;14.93;;
4057;SDS011;2044;48.692;9.020;2023-07-02T07:43:58;21.10;;;16.70;;
4057;SDS011;2044;48.692;9.020;2023-07-02T07:46:26;18.70;;;15.80;;
4057;SDS011;2044;48.692;9.020;2023-07-02T07:48:53;19.40;;;15.10;;
4057;SDS011;2044;48.692;9.020;2023-07-02T07:51:20;19.03;;;16.20;;
4057;SDS011;2044;48.692;9.020;2023-07-02T07:53:48;18.80;;;14.57;;
4057;SDS011;2044;48.692;9.020;2023-07-02T07:56:15;21.70;;;14.20;;
4057;SDS011;2044;48.692;9.020;2023-07-02T07:58:43;16.07;;;13.93;;
4057;SDS011;2044;48.692;9.020;2023-07-02T08:01:10;18.30;;;14.57;;
4057;SDS011;2044;48.692;9.020;2023-07-02T08:03:37;19.27;;;14.57;;
4057;SDS011;2044;48.692;9.020;2023-07-02T08:06:04;16.90;;;14.70;;
4057;SDS011;2044;48.692;9.020;2023-07-02T08:08:31;17.47;;;15.50;;
4057;SDS011;2044;48.692;9.020;2023-07-02T08:11:00;20.73;;;15.30;;
4057;SDS011;2044;48.692;9.020;2023-07-02T08:13:27;20.43;;;15.07;;
4057;SDS011;2044;48.692;9.020;2023-07-02T08:15:54;17.87;;;14.40;;
4057;SDS011;2044;48.692;9.020;2023-07-02T08:18:21;16.60;;;14.93;;
4057;SDS011;2044;48.692;9.020;2023-07-02T08:20:48;17.33;;;13.87;;
4057;SDS011;2044;48.692;9.020;2023-07-02T08:23:15;18.93;;;14.97;;
4057;SDS011;2044;48.692;9.020;2023-07-02T08:25:43;17.90;;;14.30;;
4057;SDS011;2044;48.692;9.020;2023-07-02T08:28:11;17.57;;;15.47;;
4057;SDS011;2044;48.692;9.020;2023-07-02T08:30:38;23.13;;;16.40;;
4057;SDS011;2044;48.692;9.020;2023-07-02T08:33:05;18.33;;;15.77;;
4057;SDS011;2044;48.692;9.020;2023-07-02T08:35:32;17.33;;;15.50;;
4057;SDS011;2044;48.692;9.020;2023-07-02T08:37:59;19.23;;;15.40;;
4057;SDS011;2044;48.692;9.020;2023-07-02T08:40:26;19.17;;;14.70;;
4057;SDS011;2044;48.692;9.020;2023-07-02T08:42:53;17.70;;;14.90;;
4057;SDS011;2044;48.692;9.020;2023-07-02T08:45:24;16.50;;;14.70;;
4057;SDS011;2044;48.692;9.020;2023-07-02T08:47:52;17.07;;;15.30;;
4057;SDS011;2044;48.692;9.020;2023-07-02T08:50:21;15.87;;;14.20;;
4057;SDS011;2044;48.692;9.020;2023-07-02T08:52:48;20.13;;;15.00;;
4057;SDS011;2044;48.692;9.020;2023-07-02T08:55:16;15.23;;;13.60;;
4057;SDS011;2044;48.692;9.020;2023-07-02T08:57:46;15.30;;;13.70;;
4057;SDS011;2044;48.692;9.020;2023-07-02T09:00:16;18.40;;;14.67;;
4057;SDS011;2044;48.692;9.020;2023-07-02T09:02:46;18.23;;;14.57;;
4057;SDS011;2044;48.692;9.020;2023-07-02T09:05:13;16.47;;;13.97;;
4057;SDS011;2044;48.692;9.020;2023-07-02T09:07:43;16.10;;;14.70;;
4057;SDS011;2044;48.692;9.020;2023-07-02T09:10:11;16.90;;;15.20;;
4057;SDS011;2044;48.692;9.020;2023-07-02T09:12:38;16.30;;;14.70;;
4057;SDS011;2044;48.692;9.020;2023-07-02T09:15:05;16.47;;;14.80;;
4057;SDS011;2044;48.692;9.020;2023-07-02T09:17:33;16.10;;;14.60;;
4057;SDS011;2044;48.692;9.020;2023-07-02T09:20:03;18.97;;;14.87;;
4057;SDS011;2044;48.692;9.020;2023-07-02T09:22:33;16.30;;;14.80;;
4057;SDS011;2044;48.692;9.020;2023-07-02T09:25:00;16.13;;;14.50;;
4057;SDS011;2044;48.692;9.020;2023-07-02T09:27:34;16.40;;;14.83;;
4057;SDS011;2044;48.692;9.020;2023-07-02T09:30:06;17.83;;;16.03;;
4057;SDS011;2044;48.692;9.020;2023-07-02T09:32:34;16.27;;;14.67;;
4057;SDS011;2044;48.692;9.020;2023-07-02T09:35:02;17.43;;;15.63;;
4057;SDS011;2044;48.692;9.020;2023-07-02T09:37:30;15.37;;;13.97;;
4057;SDS011;2044;48.692;9.020;2023-07-02T09:39:57;18.47;;;16.20;;
4057;SDS011;2044;48.692;9.020;2023-07-02T09:42:25;17.63;;;15.80;;
4057;SDS011;2044;48.692;9.020;2023-07-02T09:44:52;17.60;;;15.70;;
4057;SDS011;2044;48.692;9.020;2023-07-02T09:47:21;16.97;;;15.27;;
4057;SDS011;2044;48.692;9.020;2023-07-02T09:49:49;18.40;;;15.60;;
4057;SDS011;2044;48.692;9.020;2023-07-02T09:52:20;18.60;;;16.20;;
4057;SDS011;2044;48.692;9.020;2023-07-02T09:54:47;17.67;;;15.23;;
4057;SDS011;2044;48.692;9.020;2023-07-02T09:57:15;19.90;;;16.17;;
4057;SDS011;2044;48.692;9.020;2023-07-02T09:59:42;18.60;;;16.60;;
4057;SDS011;2044;48.692;9.020;2023-07-02T10:02:09;18.70;;;16.73;;
4057;SDS011;2044;48.692;9.020;2023-07-02T10:04:39;20.10;;;17.07;;
4057;SDS011;2044;48.692;9.020;2023-07-02T10:07:07;16.90;;;14.80;;
4057;SDS011;2044;48.692;9.020;2023-07-02T10:09:36;17.83;;;15.40;;
4057;SDS011;2044;48.692;9.020;2023-07-02T10:12:14;17.40;;;15.60;;
4057;SDS011;2044;48.692;9.020;2023-07-02T10:14:42;19.17;;;15.80;;
4057;SDS011;2044;48.692;9.020;2023-07-02T10:17:09;20.00;;;14.93;;
4057;SDS011;2044;48.692;9.020;2023-07-02T10:19:36;20.40;;;15.33;;
4057;SDS011;2044;48.692;9.020;2023-07-02T10:22:04;17.50;;;14.47;;
4057;SDS011;2044;48.692;9.020;2023-07-02T10:24:33;17.20;;;15.40;;
4057;SDS011;2044;48.692;9.020;2023-07-02T10:27:01;16.43;;;14.73;;
4057;SDS011;2044;48.692;9.020;2023-07-02T10:29:29;17.50;;;15.47;;
4057;SDS011;2044;48.692;9.020;2023-07-02T10:31:56;18.47;;;15.90;;
4057;SDS011;2044;48.692;9.020;2023-07-02T10:34:28;18.47;;;15.73;;
4057;SDS011;2044;48.692;9.020;2023-07-02T10:36:56;21.73;;;16.00;;
4057;SDS011;2044;48.692;9.020;2023-07-02T10:39:23;19.43;;;16.17;;
4057;SDS011;2044;48.692;9.020;2023-07-02T10:41:51;18.83;;;15.87;;
4057;SDS011;2044;48.692;9.020;2023-07-02T10:44:19;15.03;;;13.43;;
4057;SDS011;2044;48.692;9.020;2023-07-02T10:46:47;17.13;;;14.30;;
4057;SDS011;2044;48.692;9.020;2023-07-02T10:49:14;16.47;;;14.70;;
4057;SDS011;2044;48.692;9.020;2023-07-02T10:51:41;16.83;;;14.43;;
4057;SDS011;2044;48.692;9.020;2023-07-02T10:54:08;17.67;;;15.87;;
4057;SDS011;2044;48.692;9.020;2023-07-02T10:56:36;15.83;;;13.97;;
4057;SDS011;2044;48.692;9.020;2023-07-02T10:59:03;17.47;;;14.67;;
4057;SDS011;2044;48.692;9.020;2023-07-02T11:01:32;16.87;;;15.07;;
4057;SDS011;2044;48.692;9.020;2023-07-02T11:03:59;17.33;;;14.87;;
4057;SDS011;2044;48.692;9.020;2023-07-02T11:06:27;15.60;;;14.10;;
4057;SDS011;2044;48.692;9.020;2023-07-02T11:08:55;16.37;;;14.70;;
4057;SDS011;2044;48.692;9.020;2023-07-02T11:11:22;15.70;;;14.27;;
4057;SDS011;2044;48.692;9.020;2023-07-02T11:13:50;15.67;;;13.97;;
4057;SDS011;2044;48.692;9.020;2023-07-02T11:16:18;18.10;;;15.33;;
4057;SDS011;2044;48.692;9.020;2023-07-02T11:18:49;15.90;;;14.40;;
4057;SDS011;2044;48.692;9.020;2023-07-02T11:21:16;15.10;;;13.47;;
4057;SDS011;2044;48.692;9.020;2023-07-02T11:23:43;16.23;;;14.40;;
4057;SDS011;2044;48.692;9.020;2023-07-02T11:26:10;16.10;;;14.40;;
4057;SDS011;2044;48.692;9.020;2023-07-02T11:28:47;17.37;;;15.03;;
4057;SDS011;2044;48.692;9.020;2023-07-02T11:31:23;17.50;;;15.60;;
4057;SDS011;2044;48.692;9.020;2023-07-02T11:33:53;17.97;;;14.53;;
4057;SDS011;2044;48.692;9.020;2023-07-02T11:36:20;17.70;;;13.70;;
4057;SDS011;2044;48.692;9.020;2023-07-02T11:38:49;17.57;;;15.77;;
4057;SDS011;2044;48.692;9.020;2023-07-02T11:41:17;16.03;;;14.23;;
4057;SDS011;2044;48.692;9.020;2023-07-02T11:43:45;22.83;;;14.47;;
4057;SDS011;2044;48.692;9.020;2023-07-02T11:46:12;16.13;;;13.50;;
4057;SDS011;2044;48.692;9.020;2023-07-02T11:48:40;17.93;;;14.30;;
4057;SDS011;2044;48.692;9.020;2023-07-02T11:51:08;15.80;;;14.20;;
4057;SDS011;2044;48.692;9.020;2023-07-02T11:53:35;14.17;;;12.77;;
4057;SDS011;2044;48.692;9.020;2023-07-02T11:56:02;14.67;;;13.23;;
4057;SDS011;2044;48.692;9.020;2023-07-02T11:58:30;17.40;;;14.57;;
4057;SDS011;2044;48.692;9.020;2023-07-02T12:00:57;16.33;;;13.93;;
4057;SDS011;2044;48.692;9.020;2023-07-02T12:03:24;32.03;;;15.53;;
4057;SDS011;2044;48.692;9.020;2023-07-02T12:05:51;19.07;;;14.53;;
4057;SDS011;2044;48.692;9.020;2023-07-02T12:08:20;17.97;;;14.97;;
4057;SDS011;2044;48.692;9.020;2023-07-02T12:10:47;16.43;;;14.73;;
4057;SDS011;2044;48.692;9.020;2023-07-02T12:13:14;15.83;;;14.10;;
4057;SDS011;2044;48.692;9.020;2023-07-02T12:15:41;20.10;;;15.30;;
4057;SDS011;2044;48.692;9.020;2023-07-02T12:18:08;17.73;;;14.63;;
4057;SDS011;2044;48.692;9.020;2023-07-02T12:20:35;16.47;;;14.67;;
4057;SDS011;2044;48.692;9.020;2023-07-02T12:23:03;16.77;;;14.93;;
4057;SDS011;2044;48.692;9.020;2023-07-02T12:25:32;15.03;;;13.53;;
4057;SDS011;2044;48.692;9.020;2023-07-02T12:27:59;17.63;;;15.37;;
4057;SDS011;2044;48.692;9.020;2023-07-02T12:30:27;16.47;;;14.73;;
4057;SDS011;2044;48.692;9.020;2023-07-02T12:32:54;15.53;;;14.00;;
4057;SDS011;2044;48.692;9.020;2023-07-02T12:35:21;16.60;;;14.63;;
4057;SDS011;2044;48.692;9.020;2023-07-02T12:37:49;16.10;;;12.60;;
4057;SDS011;2044;48.692;9.020;2023-07-02T12:40:17;15.70;;;14.33;;
4057;SDS011;2044;48.692;9.020;2023-07-02T12:42:46;15.60;;;13.87;;
4057;SDS011;2044;48.692;9.020;2023-07-02T12:45:14;15.23;;;13.80;;
4057;SDS011;2044;48.692;9.020;2023-07-02T12:47:42;14.50;;;12.97;;
4057;SDS011;2044;48.692;9.020;2023-07-02T12:50:10;14.40;;;13.10;;
4057;SDS011;2044;48.692;9.020;2023-07-02T12:52:37;15.77;;;14.00;;
4057;SDS011;2044;48.692;9.020;2023-07-02T12:55:04;15.57;;;14.07;;
4057;SDS011;2044;48.692;9.020;2023-07-02T12:57:31;20.33;;;18.63;;
4057;SDS011;2044;48.692;9.020;2023-07-02T13:00:00;20.50;;;18.67;;
4057;SDS011;2044;48.692;9.020;2023-07-02T13:02:30;20.30;;;18.70;;
4057;SDS011;2044;48.692;9.020;2023-07-02T13:04:57;22.17;;;20.17;;
4057;SDS011;2044;48.692;9.020;2023-07-02T13:07:24;20.03;;;18.30;;
4057;SDS011;2044;48.692;9.020;2023-07-02T13:09:52;19.00;;;17.50;;
4057;SDS011;2044;48.692;9.020;2023-07-02T13:12:20;20.33;;;18.57;;
4057;SDS011;2044;48.692;9.020;2023-07-02T13:14:47;19.10;;;17.50;;
4057;SDS011;2044;48.692;9.020;2023-07-02T13:17:15;19.37;;;17.63;;
4057;SDS011;2044;48.692;9.020;2023-07-02T13:19:43;18.90;;;17.20;;
4057;SDS011;2044;48.692;9.020;2023-07-02T13:22:10;19.27;;;17.57;;
4057;SDS011;2044;48.692;9.020;2023-07-02T13:24:37;19.30;;;17.57;;
4057;SDS011;2044;48.692;9.020;2023-07-02T13:27:06;21.80;;;19.30;;
4057;SDS011;2044;48.692;9.020;2023-07-02T13:29:39;19.37;;;17.70;;
4057;SDS011;2044;48.692;9.020;2023-07-02T13:32:06;20.20;;;18.20;;
4057;SDS011;2044;48.692;9.020;2023-07-02T13:34:35;18.20;;;16.60;;
4057;SDS011;2044;48.692;9.020;2023-07-02T13:37:03;19.27;;;17.50;;
4057;SDS011;2044;48.692;9.020;2023-07-02T13:39:30;19.70;;;17.90;;
4057;SDS011;2044;48.692;9.020;2023-07-02T13:41:57;19.83;;;17.97;;
4057;SDS011;2044;48.692;9.020;2023-07-02T13:44:24;20.97;;;18.97;;
4057;SDS011;2044;48.692;9.020;2023-07-02T13:46:52;18.27;;;16.57;;
4057;SDS011;2044;48.692;9.020;2023-07-02T13:49:20;19.67;;;17.87;;
4057;SDS011;2044;48.692;9.020;2023-07-02T13:51:48;22.00;;;19.10;;
4057;SDS011;2044;48.692;9.020;2023-07-02T13:54:16;19.17;;;17.17;;
4057;SDS011;2044;48.692;9.020;2023-07-02T13:56:43;19.63;;;17.83;;
4057;SDS011;2044;48.692;9.020;2023-07-02T13:59:12;18.93;;;17.20;;
4057;SDS011;2044;48.692;9.020;2023-07-02T14:01:39;20.50;;;18.60;;
4057;SDS011;2044;48.692;9.020;2023-07-02T14:04:07;18.50;;;16.80;;
4057;SDS011;2044;48.692;9.020;2023-07-02T14:06:34;19.10;;;17.57;;
4057;SDS011;2044;48.692;9.020;2023-07-02T14:09:03;19.47;;;17.77;;
4057;SDS011;2044;48.692;9.020;2023-07-02T14:11:31;20.40;;;18.50;;
4057;SDS011;2044;48.692;9.020;2023-07-02T14:13:58;19.40;;;17.70;;
4057;SDS011;2044;48.692;9.020;2023-07-02T14:16:27;20.03;;;18.07;;
4057;SDS011;2044;48.692;9.020;2023-07-02T14:18:54;21.30;;;19.20;;
4057;SDS011;2044;48.692;9.020;2023-07-02T14:21:21;21.53;;;18.00;;
4057;SDS011;2044;48.692;9.020;2023-07-02T14:23:48;19.27;;;17.47;;
4057;SDS011;2044;48.692;9.020;2023-07-02T14:26:15;19.73;;;17.93;;
4057;SDS011;2044;48.692;9.020;2023-07-02T14:28:43;19.17;;;17.27;;
4057;SDS011;2044;48.692;9.020;2023-07-02T14:31:11;20.43;;;18.43;;
4057;SDS011;2044;48.692;9.020;2023-07-02T14:33:39;19.97;;;18.00;;
4057;SDS011;2044;48.692;9.020;2023-07-02T14:36:07;21.70;;;19.40;;
4057;SDS011;2044;48.692;9.020;2023-07-02T14:38:34;21.43;;;19.47;;
4057;SDS011;2044;48.692;9.020;2023-07-02T14:41:01;20.40;;;18.50;;
4057;SDS011;2044;48.692;9.020;2023-07-02T14:43:29;21.77;;;19.70;;
4057;SDS011;2044;48.692;9.020;2023-07-02T14:45:58;20.13;;;18.33;;
4057;SDS011;2044;48.692;9.020;2023-07-02T14:48:26;19.93;;;18.13;;
4057;SDS011;2044;48.692;9.020;2023-07-02T14:50:56;19.27;;;17.47;;
4057;SDS011;2044;48.692;9.020;2023-07-02T14:53:24;14.93;;;13.40;;
4057;SDS011;2044;48.692;9.020;2023-07-02T14:55:53;16.07;;;14.40;;
4057;SDS011;2044;48.692;9.020;2023-07-02T14:58:21;16.90;;;14.53;;
4057;SDS011;2044;48.692;9.020;2023-07-02T15:00:49;17.07;;;13.60;;
4057;SDS011;2044;48.692;9.020;2023-07-02T15:03:18;15.53;;;13.80;;
4057;SDS011;2044;48.692;9.020;2023-07-02T15:05:47;15.70;;;14.10;;
4057;SDS011;2044;48.692;9.020;2023-07-02T15:08:16;17.30;;;14.90;;